sensor_id;sensor_type;location;lat;lon;timestamp;temperature;humidity
7572;DHT22;3827;49.928;8.548;2022-08-19T00:01:14;20.60;99.90
7572;DHT22;3827;49.928;8.548;2022-08-19T00:03:41;20.70;99.90
7572;DHT22;3827;49.928;8.548;2022-08-19T00:06:08;20.60;99.90
7572;DHT22;3827;49.928;8.548;2022-08-19T00:08:35;20.70;99.90
7572;DHT22;3827;49.928;8.548;2022-08-19T00:11:02;20.70;99.90
7572;DHT22;3827;49.928;8.548;2022-08-19T00:13:29;20.60;99.90
7572;DHT22;3827;49.928;8.548;2022-08-19T00:15:56;20.70;99.90
7572;DHT22;3827;49.928;8.548;2022-08-19T00:18:25;20.70;99.90
7572;DHT22;3827;49.928;8.548;2022-08-19T00:20:52;20.80;99.90
7572;DHT22;3827;49.928;8.548;2022-08-19T00:23:19;20.80;99.90
7572;DHT22;3827;49.928;8.548;2022-08-19T00:25:45;20.80;99.90
7572;DHT22;3827;49.928;8.548;2022-08-19T00:28:12;20.80;99.90
7572;DHT22;3827;49.928;8.548;2022-08-19T00:30:39;20.80;99.90
7572;DHT22;3827;49.928;8.548;2022-08-19T00:33:06;20.80;99.90
7572;DHT22;3827;49.928;8.548;2022-08-19T00:35:34;20.90;99.90
7572;DHT22;3827;49.928;8.548;2022-08-19T00:38:04;20.50;99.90
7572;DHT22;3827;49.928;8.548;2022-08-19T00:40:32;20.40;99.90
7572;DHT22;3827;49.928;8.548;2022-08-19T00:42:59;20.20;99.90
7572;DHT22;3827;49.928;8.548;2022-08-19T00:45:28;20.20;99.90
7572;DHT22;3827;49.928;8.548;2022-08-19T00:47:57;20.10;99.90
7572;DHT22;3827;49.928;8.548;2022-08-19T00:50:23;20.20;99.90
7572;DHT22;3827;49.928;8.548;2022-08-19T00:52:52;20.20;99.90
7572;DHT22;3827;49.928;8.548;2022-08-19T00:55:22;20.20;99.90
7572;DHT22;3827;49.928;8.548;2022-08-19T00:57:53;20.20;99.90
7572;DHT22;3827;49.928;8.548;2022-08-19T01:00:23;20.30;99.90
7572;DHT22;3827;49.928;8.548;2022-08-19T01:02:50;20.40;99.90
7572;DHT22;3827;49.928;8.548;2022-08-19T01:05:22;20.50;99.90
7572;DHT22;3827;49.928;8.548;2022-08-19T01:07:51;20.60;93.00
7572;DHT22;3827;49.928;8.548;2022-08-19T01:10:21;20.60;99.90
7572;DHT22;3827;49.928;8.548;2022-08-19T01:12:50;20.60;1.00
7572;DHT22;3827;49.928;8.548;2022-08-19T01:15:20;21.20;99.90
7572;DHT22;3827;49.928;8.548;2022-08-19T01:17:48;20.60;99.90
7572;DHT22;3827;49.928;8.548;2022-08-19T01:20:18;20.60;99.90
7572;DHT22;3827;49.928;8.548;2022-08-19T01:22:49;20.60;99.90
7572;DHT22;3827;49.928;8.548;2022-08-19T01:25:21;20.50;99.90
7572;DHT22;3827;49.928;8.548;2022-08-19T01:27:50;20.50;99.90
7572;DHT22;3827;49.928;8.548;2022-08-19T01:30:21;20.60;99.90
7572;DHT22;3827;49.928;8.548;2022-08-19T01:32:48;20.50;99.90
7572;DHT22;3827;49.928;8.548;2022-08-19T01:35:16;20.50;99.90
7572;DHT22;3827;49.928;8.548;2022-08-19T01:37:51;20.50;99.90
7572;DHT22;3827;49.928;8.548;2022-08-19T01:40:20;20.40;99.90
7572;DHT22;3827;49.928;8.548;2022-08-19T01:42:48;20.50;99.90
7572;DHT22;3827;49.928;8.548;2022-08-19T01:45:15;20.50;99.90
7572;DHT22;3827;49.928;8.548;2022-08-19T01:47:42;20.50;99.90
7572;DHT22;3827;49.928;8.548;2022-08-19T01:50:12;20.50;99.90
7572;DHT22;3827;49.928;8.548;2022-08-19T01:52:40;20.40;99.90
7572;DHT22;3827;49.928;8.548;2022-08-19T01:55:11;20.40;99.90
7572;DHT22;3827;49.928;8.548;2022-08-19T01:57:40;20.50;99.90
7572;DHT22;3827;49.928;8.548;2022-08-19T02:00:11;20.50;99.90
7572;DHT22;3827;49.928;8.548;2022-08-19T02:02:39;20.50;99.90
7572;DHT22;3827;49.928;8.548;2022-08-19T02:05:07;20.40;99.90
7572;DHT22;3827;49.928;8.548;2022-08-19T02:07:34;20.40;99.90
7572;DHT22;3827;49.928;8.548;2022-08-19T02:10:02;20.40;99.90
7572;DHT22;3827;49.928;8.548;2022-08-19T02:12:31;20.50;99.90
7572;DHT22;3827;49.928;8.548;2022-08-19T02:14:59;20.40;99.90
7572;DHT22;3827;49.928;8.548;2022-08-19T02:17:26;20.50;99.90
7572;DHT22;3827;49.928;8.548;2022-08-19T02:19:53;20.40;99.90
7572;DHT22;3827;49.928;8.548;2022-08-19T02:22:21;20.40;99.90
7572;DHT22;3827;49.928;8.548;2022-08-19T02:24:48;20.40;99.90
7572;DHT22;3827;49.928;8.548;2022-08-19T02:27:14;20.30;99.90
7572;DHT22;3827;49.928;8.548;2022-08-19T02:29:46;20.30;99.90
7572;DHT22;3827;49.928;8.548;2022-08-19T02:32:13;20.30;99.90
7572;DHT22;3827;49.928;8.548;2022-08-19T02:34:40;20.30;99.90
7572;DHT22;3827;49.928;8.548;2022-08-19T02:37:07;20.30;99.90
7572;DHT22;3827;49.928;8.548;2022-08-19T02:39:54;20.30;99.90
7572;DHT22;3827;49.928;8.548;2022-08-19T02:42:20;20.50;99.90
7572;DHT22;3827;49.928;8.548;2022-08-19T02:44:48;20.30;99.90
7572;DHT22;3827;49.928;8.548;2022-08-19T02:47:15;20.20;99.90
7572;DHT22;3827;49.928;8.548;2022-08-19T02:49:42;20.20;99.90
7572;DHT22;3827;49.928;8.548;2022-08-19T02:52:09;20.20;99.90
7572;DHT22;3827;49.928;8.548;2022-08-19T02:54:36;20.20;99.90
7572;DHT22;3827;49.928;8.548;2022-08-19T02:57:04;20.20;99.90
7572;DHT22;3827;49.928;8.548;2022-08-19T02:59:32;20.10;99.90
7572;DHT22;3827;49.928;8.548;2022-08-19T03:02:00;20.10;99.90
7572;DHT22;3827;49.928;8.548;2022-08-19T03:04:27;20.10;99.90
7572;DHT22;3827;49.928;8.548;2022-08-19T03:06:55;20.10;99.90
7572;DHT22;3827;49.928;8.548;2022-08-19T03:09:22;20.10;99.90
7572;DHT22;3827;49.928;8.548;2022-08-19T03:11:49;20.00;99.90
7572;DHT22;3827;49.928;8.548;2022-08-19T03:14:16;19.90;99.90
7572;DHT22;3827;49.928;8.548;2022-08-19T03:16:45;19.90;99.90
7572;DHT22;3827;49.928;8.548;2022-08-19T03:19:14;19.90;99.90
7572;DHT22;3827;49.928;8.548;2022-08-19T03:21:42;19.80;99.90
7572;DHT22;3827;49.928;8.548;2022-08-19T03:24:11;19.80;99.90
7572;DHT22;3827;49.928;8.548;2022-08-19T03:26:39;19.80;99.90
7572;DHT22;3827;49.928;8.548;2022-08-19T03:29:07;19.80;99.90
7572;DHT22;3827;49.928;8.548;2022-08-19T03:31:34;19.70;99.90
7572;DHT22;3827;49.928;8.548;2022-08-19T03:34:01;19.70;99.90
7572;DHT22;3827;49.928;8.548;2022-08-19T03:36:29;19.70;99.90
7572;DHT22;3827;49.928;8.548;2022-08-19T03:38:57;19.80;99.90
7572;DHT22;3827;49.928;8.548;2022-08-19T03:41:27;19.60;99.90
7572;DHT22;3827;49.928;8.548;2022-08-19T03:43:54;19.60;99.90
7572;DHT22;3827;49.928;8.548;2022-08-19T03:46:23;19.60;99.90
7572;DHT22;3827;49.928;8.548;2022-08-19T03:48:53;19.60;99.90
7572;DHT22;3827;49.928;8.548;2022-08-19T03:51:22;19.60;99.90
7572;DHT22;3827;49.928;8.548;2022-08-19T03:53:51;19.60;99.90
7572;DHT22;3827;49.928;8.548;2022-08-19T03:56:18;19.50;99.90
7572;DHT22;3827;49.928;8.548;2022-08-19T03:58:46;19.60;99.90
7572;DHT22;3827;49.928;8.548;2022-08-19T04:01:16;19.60;99.90
7572;DHT22;3827;49.928;8.548;2022-08-19T04:03:43;19.60;99.90
7572;DHT22;3827;49.928;8.548;2022-08-19T04:06:12;19.60;99.90
7572;DHT22;3827;49.928;8.548;2022-08-19T04:08:40;19.60;99.90
7572;DHT22;3827;49.928;8.548;2022-08-19T04:11:09;19.60;99.90
7572;DHT22;3827;49.928;8.548;2022-08-19T04:13:37;19.60;99.90
7572;DHT22;3827;49.928;8.548;2022-08-19T04:16:05;19.60;99.90
7572;DHT22;3827;49.928;8.548;2022-08-19T04:18:33;20.20;99.90
7572;DHT22;3827;49.928;8.548;2022-08-19T04:21:00;19.50;99.90
7572;DHT22;3827;49.928;8.548;2022-08-19T04:23:27;19.50;99.90
7572;DHT22;3827;49.928;8.548;2022-08-19T04:25:55;19.50;99.90
7572;DHT22;3827;49.928;8.548;2022-08-19T04:28:24;19.50;99.90
7572;DHT22;3827;49.928;8.548;2022-08-19T04:30:53;19.50;99.90
7572;DHT22;3827;49.928;8.548;2022-08-19T04:33:23;19.50;99.90
7572;DHT22;3827;49.928;8.548;2022-08-19T04:35:52;19.50;99.90
7572;DHT22;3827;49.928;8.548;2022-08-19T04:38:20;19.40;99.90
7572;DHT22;3827;49.928;8.548;2022-08-19T04:40:49;19.50;99.90
7572;DHT22;3827;49.928;8.548;2022-08-19T04:43:38;19.50;99.90
7572;DHT22;3827;49.928;8.548;2022-08-19T04:46:05;19.50;99.90
7572;DHT22;3827;49.928;8.548;2022-08-19T04:48:33;19.50;99.90
7572;DHT22;3827;49.928;8.548;2022-08-19T04:51:01;19.50;99.90
7572;DHT22;3827;49.928;8.548;2022-08-19T04:53:33;19.50;99.90
7572;DHT22;3827;49.928;8.548;2022-08-19T04:56:04;19.50;99.90
7572;DHT22;3827;49.928;8.548;2022-08-19T04:58:32;19.50;99.90
7572;DHT22;3827;49.928;8.548;2022-08-19T05:01:01;19.60;99.90
7572;DHT22;3827;49.928;8.548;2022-08-19T05:03:28;19.60;99.90
7572;DHT22;3827;49.928;8.548;2022-08-19T05:06:03;19.50;99.90
7572;DHT22;3827;49.928;8.548;2022-08-19T05:08:31;19.60;99.90
7572;DHT22;3827;49.928;8.548;2022-08-19T05:10:57;19.60;99.90
7572;DHT22;3827;49.928;8.548;2022-08-19T05:13:25;19.60;99.90
7572;DHT22;3827;49.928;8.548;2022-08-19T05:15:56;19.70;99.90
7572;DHT22;3827;49.928;8.548;2022-08-19T05:18:25;19.70;99.90
7572;DHT22;3827;49.928;8.548;2022-08-19T05:21:11;19.70;99.90
7572;DHT22;3827;49.928;8.548;2022-08-19T05:23:56;19.80;99.90
7572;DHT22;3827;49.928;8.548;2022-08-19T05:26:23;19.80;99.90
7572;DHT22;3827;49.928;8.548;2022-08-19T05:28:51;19.80;99.90
7572;DHT22;3827;49.928;8.548;2022-08-19T05:31:18;19.90;99.90
7572;DHT22;3827;49.928;8.548;2022-08-19T05:33:47;19.90;99.90
7572;DHT22;3827;49.928;8.548;2022-08-19T05:36:15;20.00;99.90
7572;DHT22;3827;49.928;8.548;2022-08-19T05:38:44;20.00;99.90
7572;DHT22;3827;49.928;8.548;2022-08-19T05:41:12;20.10;99.90
7572;DHT22;3827;49.928;8.548;2022-08-19T05:43:39;20.10;99.90
7572;DHT22;3827;49.928;8.548;2022-08-19T05:46:07;20.20;99.90
7572;DHT22;3827;49.928;8.548;2022-08-19T05:48:35;20.30;99.90
7572;DHT22;3827;49.928;8.548;2022-08-19T05:51:05;20.30;99.90
7572;DHT22;3827;49.928;8.548;2022-08-19T05:53:33;20.40;99.90
7572;DHT22;3827;49.928;8.548;2022-08-19T05:56:04;20.50;99.90
7572;DHT22;3827;49.928;8.548;2022-08-19T05:58:31;20.50;99.90
7572;DHT22;3827;49.928;8.548;2022-08-19T06:00:58;20.70;99.90
7572;DHT22;3827;49.928;8.548;2022-08-19T06:03:30;20.60;99.90
7572;DHT22;3827;49.928;8.548;2022-08-19T06:05:58;20.50;99.90
7572;DHT22;3827;49.928;8.548;2022-08-19T06:08:27;20.60;99.90
7572;DHT22;3827;49.928;8.548;2022-08-19T06:10:54;20.60;99.90
7572;DHT22;3827;49.928;8.548;2022-08-19T06:13:22;20.70;99.90
7572;DHT22;3827;49.928;8.548;2022-08-19T06:15:49;20.80;99.90
7572;DHT22;3827;49.928;8.548;2022-08-19T06:18:16;20.90;99.90
7572;DHT22;3827;49.928;8.548;2022-08-19T06:20:43;21.00;99.90
7572;DHT22;3827;49.928;8.548;2022-08-19T06:23:10;21.00;99.90
7572;DHT22;3827;49.928;8.548;2022-08-19T06:25:39;21.10;99.90
7572;DHT22;3827;49.928;8.548;2022-08-19T06:28:05;21.20;99.90
7572;DHT22;3827;49.928;8.548;2022-08-19T06:30:32;21.30;99.90
7572;DHT22;3827;49.928;8.548;2022-08-19T06:32:59;21.40;99.90
7572;DHT22;3827;49.928;8.548;2022-08-19T06:35:26;21.50;99.90
7572;DHT22;3827;49.928;8.548;2022-08-19T06:37:54;21.60;99.90
7572;DHT22;3827;49.928;8.548;2022-08-19T06:40:22;21.70;99.90
7572;DHT22;3827;49.928;8.548;2022-08-19T06:42:50;21.70;99.90
7572;DHT22;3827;49.928;8.548;2022-08-19T06:45:18;21.70;99.90
7572;DHT22;3827;49.928;8.548;2022-08-19T06:47:45;21.70;99.90
7572;DHT22;3827;49.928;8.548;2022-08-19T06:50:14;21.70;99.90
7572;DHT22;3827;49.928;8.548;2022-08-19T06:52:41;21.70;99.90
7572;DHT22;3827;49.928;8.548;2022-08-19T06:55:08;21.80;99.90
7572;DHT22;3827;49.928;8.548;2022-08-19T06:57:35;21.90;99.90
7572;DHT22;3827;49.928;8.548;2022-08-19T07:00:05;22.10;99.90
7572;DHT22;3827;49.928;8.548;2022-08-19T07:02:36;22.20;99.90
7572;DHT22;3827;49.928;8.548;2022-08-19T07:05:04;22.10;99.90
7572;DHT22;3827;49.928;8.548;2022-08-19T07:07:31;22.10;99.90
7572;DHT22;3827;49.928;8.548;2022-08-19T07:09:58;22.20;99.90
7572;DHT22;3827;49.928;8.548;2022-08-19T07:12:25;22.20;99.90
7572;DHT22;3827;49.928;8.548;2022-08-19T07:14:52;22.30;99.90
7572;DHT22;3827;49.928;8.548;2022-08-19T07:17:20;22.30;99.90
7572;DHT22;3827;49.928;8.548;2022-08-19T07:19:47;22.40;99.90
7572;DHT22;3827;49.928;8.548;2022-08-19T07:22:16;22.40;99.90
7572;DHT22;3827;49.928;8.548;2022-08-19T07:24:43;22.50;99.90
7572;DHT22;3827;49.928;8.548;2022-08-19T07:27:10;22.70;99.90
7572;DHT22;3827;49.928;8.548;2022-08-19T07:29:37;22.90;99.90
7572;DHT22;3827;49.928;8.548;2022-08-19T07:32:04;23.00;99.90
7572;DHT22;3827;49.928;8.548;2022-08-19T07:34:33;23.00;99.90
7572;DHT22;3827;49.928;8.548;2022-08-19T07:37:03;23.00;99.90
7572;DHT22;3827;49.928;8.548;2022-08-19T07:39:32;23.10;99.90
7572;DHT22;3827;49.928;8.548;2022-08-19T07:42:01;23.20;99.90
7572;DHT22;3827;49.928;8.548;2022-08-19T07:44:29;23.30;99.90
7572;DHT22;3827;49.928;8.548;2022-08-19T07:46:57;23.30;99.90
7572;DHT22;3827;49.928;8.548;2022-08-19T07:49:26;23.30;99.90
7572;DHT22;3827;49.928;8.548;2022-08-19T07:51:57;23.50;99.90
7572;DHT22;3827;49.928;8.548;2022-08-19T07:54:25;23.60;99.90
7572;DHT22;3827;49.928;8.548;2022-08-19T07:56:53;23.60;99.90
7572;DHT22;3827;49.928;8.548;2022-08-19T07:59:20;23.80;99.90
7572;DHT22;3827;49.928;8.548;2022-08-19T08:01:48;23.90;99.90
7572;DHT22;3827;49.928;8.548;2022-08-19T08:04:15;24.20;99.90
7572;DHT22;3827;49.928;8.548;2022-08-19T08:07:02;24.40;99.90
7572;DHT22;3827;49.928;8.548;2022-08-19T08:09:47;24.70;99.90
7572;DHT22;3827;49.928;8.548;2022-08-19T08:12:16;25.00;99.90
7572;DHT22;3827;49.928;8.548;2022-08-19T08:14:46;25.10;99.90
7572;DHT22;3827;49.928;8.548;2022-08-19T08:17:15;25.10;99.90
7572;DHT22;3827;49.928;8.548;2022-08-19T08:19:43;25.70;99.90
7572;DHT22;3827;49.928;8.548;2022-08-19T08:22:15;26.10;99.90
7572;DHT22;3827;49.928;8.548;2022-08-19T08:25:12;26.10;99.90
7572;DHT22;3827;49.928;8.548;2022-08-19T08:27:40;25.70;99.90
7572;DHT22;3827;49.928;8.548;2022-08-19T08:30:08;26.00;99.90
7572;DHT22;3827;49.928;8.548;2022-08-19T08:32:36;26.20;99.90
7572;DHT22;3827;49.928;8.548;2022-08-19T08:35:04;25.90;99.90
7572;DHT22;3827;49.928;8.548;2022-08-19T08:37:32;25.60;99.90
7572;DHT22;3827;49.928;8.548;2022-08-19T08:40:03;25.00;99.90
7572;DHT22;3827;49.928;8.548;2022-08-19T08:42:35;25.00;99.90
7572;DHT22;3827;49.928;8.548;2022-08-19T08:45:08;25.20;99.90
7572;DHT22;3827;49.928;8.548;2022-08-19T08:47:39;25.10;99.90
7572;DHT22;3827;49.928;8.548;2022-08-19T08:50:12;25.10;99.90
7572;DHT22;3827;49.928;8.548;2022-08-19T08:52:45;25.10;99.90
7572;DHT22;3827;49.928;8.548;2022-08-19T08:55:14;25.30;99.90
7572;DHT22;3827;49.928;8.548;2022-08-19T08:57:49;25.60;99.90
7572;DHT22;3827;49.928;8.548;2022-08-19T09:00:22;25.90;99.90
7572;DHT22;3827;49.928;8.548;2022-08-19T09:02:50;25.70;99.90
7572;DHT22;3827;49.928;8.548;2022-08-19T09:05:17;25.60;99.90
7572;DHT22;3827;49.928;8.548;2022-08-19T09:07:53;25.70;99.90
7572;DHT22;3827;49.928;8.548;2022-08-19T09:10:29;25.70;99.90
7572;DHT22;3827;49.928;8.548;2022-08-19T09:13:03;25.40;99.90
7572;DHT22;3827;49.928;8.548;2022-08-19T09:15:34;25.40;99.90
7572;DHT22;3827;49.928;8.548;2022-08-19T09:18:04;25.40;99.90
7572;DHT22;3827;49.928;8.548;2022-08-19T09:20:32;25.70;99.90
7572;DHT22;3827;49.928;8.548;2022-08-19T09:23:00;25.80;99.90
7572;DHT22;3827;49.928;8.548;2022-08-19T09:25:28;25.60;99.90
7572;DHT22;3827;49.928;8.548;2022-08-19T09:27:56;25.50;99.90
7572;DHT22;3827;49.928;8.548;2022-08-19T09:30:29;25.20;99.90
7572;DHT22;3827;49.928;8.548;2022-08-19T09:32:56;24.90;99.90
7572;DHT22;3827;49.928;8.548;2022-08-19T09:35:27;25.00;99.90
7572;DHT22;3827;49.928;8.548;2022-08-19T09:37:54;25.30;99.90
7572;DHT22;3827;49.928;8.548;2022-08-19T09:40:24;25.80;99.90
7572;DHT22;3827;49.928;8.548;2022-08-19T09:42:51;26.40;99.90
7572;DHT22;3827;49.928;8.548;2022-08-19T09:45:20;26.70;99.90
7572;DHT22;3827;49.928;8.548;2022-08-19T09:47:48;26.90;99.90
7572;DHT22;3827;49.928;8.548;2022-08-19T09:50:16;27.30;99.90
7572;DHT22;3827;49.928;8.548;2022-08-19T09:52:44;26.90;99.90
7572;DHT22;3827;49.928;8.548;2022-08-19T09:55:12;27.10;99.90
7572;DHT22;3827;49.928;8.548;2022-08-19T09:57:40;26.50;99.90
7572;DHT22;3827;49.928;8.548;2022-08-19T10:00:08;26.40;99.90
7572;DHT22;3827;49.928;8.548;2022-08-19T10:02:36;26.70;99.90
7572;DHT22;3827;49.928;8.548;2022-08-19T10:05:04;26.70;99.90
7572;DHT22;3827;49.928;8.548;2022-08-19T10:07:49;26.70;99.90
7572;DHT22;3827;49.928;8.548;2022-08-19T10:10:16;26.90;99.90
7572;DHT22;3827;49.928;8.548;2022-08-19T10:12:45;27.10;99.90
7572;DHT22;3827;49.928;8.548;2022-08-19T10:15:13;27.70;99.90
7572;DHT22;3827;49.928;8.548;2022-08-19T10:17:40;27.90;99.90
7572;DHT22;3827;49.928;8.548;2022-08-19T10:20:08;27.40;99.90
7572;DHT22;3827;49.928;8.548;2022-08-19T10:22:35;27.50;99.90
7572;DHT22;3827;49.928;8.548;2022-08-19T10:25:05;27.80;99.90
7572;DHT22;3827;49.928;8.548;2022-08-19T10:27:32;28.30;99.90
7572;DHT22;3827;49.928;8.548;2022-08-19T10:30:00;28.20;99.90
7572;DHT22;3827;49.928;8.548;2022-08-19T10:32:28;28.70;99.90
7572;DHT22;3827;49.928;8.548;2022-08-19T10:34:55;28.70;99.90
7572;DHT22;3827;49.928;8.548;2022-08-19T10:37:23;28.60;99.90
7572;DHT22;3827;49.928;8.548;2022-08-19T10:39:50;28.60;99.90
7572;DHT22;3827;49.928;8.548;2022-08-19T10:42:18;29.20;99.90
7572;DHT22;3827;49.928;8.548;2022-08-19T10:44:46;28.50;99.90
7572;DHT22;3827;49.928;8.548;2022-08-19T10:47:14;28.20;99.90
7572;DHT22;3827;49.928;8.548;2022-08-19T10:49:42;28.00;99.90
7572;DHT22;3827;49.928;8.548;2022-08-19T10:52:26;27.80;99.90
7572;DHT22;3827;49.928;8.548;2022-08-19T10:55:04;28.20;99.90
7572;DHT22;3827;49.928;8.548;2022-08-19T10:57:49;28.30;99.90
7572;DHT22;3827;49.928;8.548;2022-08-19T11:00:17;28.90;99.90
7572;DHT22;3827;49.928;8.548;2022-08-19T11:02:45;28.70;99.90
7572;DHT22;3827;49.928;8.548;2022-08-19T11:05:12;28.50;99.90
7572;DHT22;3827;49.928;8.548;2022-08-19T11:07:40;28.90;99.90
7572;DHT22;3827;49.928;8.548;2022-08-19T11:10:09;28.40;99.90
7572;DHT22;3827;49.928;8.548;2022-08-19T11:12:36;28.40;99.90
7572;DHT22;3827;49.928;8.548;2022-08-19T11:15:05;28.40;99.90
7572;DHT22;3827;49.928;8.548;2022-08-19T11:17:33;28.30;99.90
7572;DHT22;3827;49.928;8.548;2022-08-19T11:20:03;28.60;99.90
7572;DHT22;3827;49.928;8.548;2022-08-19T11:22:31;28.80;99.90
7572;DHT22;3827;49.928;8.548;2022-08-19T11:24:58;28.70;99.90
7572;DHT22;3827;49.928;8.548;2022-08-19T11:27:24;28.90;99.90
7572;DHT22;3827;49.928;8.548;2022-08-19T11:29:51;29.10;99.90
7572;DHT22;3827;49.928;8.548;2022-08-19T11:32:18;29.40;99.90
7572;DHT22;3827;49.928;8.548;2022-08-19T11:34:45;28.90;99.90
7572;DHT22;3827;49.928;8.548;2022-08-19T11:37:13;28.10;99.90
7572;DHT22;3827;49.928;8.548;2022-08-19T11:39:41;27.90;99.90
7572;DHT22;3827;49.928;8.548;2022-08-19T11:42:08;28.10;99.90
7572;DHT22;3827;49.928;8.548;2022-08-19T11:44:49;29.10;99.90
7572;DHT22;3827;49.928;8.548;2022-08-19T11:47:16;29.80;99.90
7572;DHT22;3827;49.928;8.548;2022-08-19T11:49:42;29.00;99.90
7572;DHT22;3827;49.928;8.548;2022-08-19T11:52:09;28.70;99.90
7572;DHT22;3827;49.928;8.548;2022-08-19T11:54:37;28.80;99.90
7572;DHT22;3827;49.928;8.548;2022-08-19T11:57:04;29.20;99.90
7572;DHT22;3827;49.928;8.548;2022-08-19T11:59:31;29.70;99.90
7572;DHT22;3827;49.928;8.548;2022-08-19T12:01:58;29.50;99.90
7572;DHT22;3827;49.928;8.548;2022-08-19T12:04:25;29.80;99.90
7572;DHT22;3827;49.928;8.548;2022-08-19T12:06:52;29.10;99.90
7572;DHT22;3827;49.928;8.548;2022-08-19T12:09:19;29.30;99.90
7572;DHT22;3827;49.928;8.548;2022-08-19T12:11:48;30.00;99.90
7572;DHT22;3827;49.928;8.548;2022-08-19T12:14:16;30.30;99.90
7572;DHT22;3827;49.928;8.548;2022-08-19T12:16:45;30.10;99.90
7572;DHT22;3827;49.928;8.548;2022-08-19T12:19:12;28.70;99.90
7572;DHT22;3827;49.928;8.548;2022-08-19T12:21:39;28.30;99.90
7572;DHT22;3827;49.928;8.548;2022-08-19T12:24:06;29.00;99.90
7572;DHT22;3827;49.928;8.548;2022-08-19T12:26:34;29.00;99.90
7572;DHT22;3827;49.928;8.548;2022-08-19T12:29:03;28.70;99.90
7572;DHT22;3827;49.928;8.548;2022-08-19T12:31:30;28.70;99.90
7572;DHT22;3827;49.928;8.548;2022-08-19T12:33:58;28.50;99.90
7572;DHT22;3827;49.928;8.548;2022-08-19T12:36:25;28.30;99.90
7572;DHT22;3827;49.928;8.548;2022-08-19T12:38:52;29.00;99.90
7572;DHT22;3827;49.928;8.548;2022-08-19T12:41:20;29.70;99.90
7572;DHT22;3827;49.928;8.548;2022-08-19T12:43:47;30.00;99.90
7572;DHT22;3827;49.928;8.548;2022-08-19T12:46:17;29.30;99.90
7572;DHT22;3827;49.928;8.548;2022-08-19T12:48:45;28.90;99.90
7572;DHT22;3827;49.928;8.548;2022-08-19T12:51:16;28.30;99.90
7572;DHT22;3827;49.928;8.548;2022-08-19T12:53:44;28.50;99.90
7572;DHT22;3827;49.928;8.548;2022-08-19T12:56:12;28.70;99.90
7572;DHT22;3827;49.928;8.548;2022-08-19T12:58:40;29.30;99.90
7572;DHT22;3827;49.928;8.548;2022-08-19T13:01:09;29.70;99.90
7572;DHT22;3827;49.928;8.548;2022-08-19T13:03:38;29.60;99.90
7572;DHT22;3827;49.928;8.548;2022-08-19T13:06:06;29.40;99.90
7572;DHT22;3827;49.928;8.548;2022-08-19T13:08:33;30.10;99.90
7572;DHT22;3827;49.928;8.548;2022-08-19T13:11:08;30.80;99.90
7572;DHT22;3827;49.928;8.548;2022-08-19T13:13:37;30.80;99.90
7572;DHT22;3827;49.928;8.548;2022-08-19T13:16:07;30.50;99.90
7572;DHT22;3827;49.928;8.548;2022-08-19T13:18:33;29.70;99.90
7572;DHT22;3827;49.928;8.548;2022-08-19T13:21:03;29.70;99.90
7572;DHT22;3827;49.928;8.548;2022-08-19T13:23:30;30.60;99.90
7572;DHT22;3827;49.928;8.548;2022-08-19T13:25:57;31.10;99.90
7572;DHT22;3827;49.928;8.548;2022-08-19T13:28:25;30.90;99.90
7572;DHT22;3827;49.928;8.548;2022-08-19T13:30:52;30.60;99.90
7572;DHT22;3827;49.928;8.548;2022-08-19T13:33:36;30.60;99.90
7572;DHT22;3827;49.928;8.548;2022-08-19T13:36:05;30.80;99.90
7572;DHT22;3827;49.928;8.548;2022-08-19T13:38:33;30.30;99.90
7572;DHT22;3827;49.928;8.548;2022-08-19T13:41:04;30.10;99.90
7572;DHT22;3827;49.928;8.548;2022-08-19T13:43:31;30.70;99.90
7572;DHT22;3827;49.928;8.548;2022-08-19T13:45:58;30.50;99.90
7572;DHT22;3827;49.928;8.548;2022-08-19T13:48:26;29.80;99.90
7572;DHT22;3827;49.928;8.548;2022-08-19T13:50:53;29.30;99.90
7572;DHT22;3827;49.928;8.548;2022-08-19T13:53:21;29.10;99.90
7572;DHT22;3827;49.928;8.548;2022-08-19T13:55:49;29.20;99.90
7572;DHT22;3827;49.928;8.548;2022-08-19T13:58:16;29.30;99.90
7572;DHT22;3827;49.928;8.548;2022-08-19T14:00:45;30.20;99.90
7572;DHT22;3827;49.928;8.548;2022-08-19T14:03:12;30.10;99.90
7572;DHT22;3827;49.928;8.548;2022-08-19T14:05:39;29.90;99.90
7572;DHT22;3827;49.928;8.548;2022-08-19T14:08:06;29.00;99.90
7572;DHT22;3827;49.928;8.548;2022-08-19T14:10:36;28.60;99.90
7572;DHT22;3827;49.928;8.548;2022-08-19T14:13:03;28.40;99.90
7572;DHT22;3827;49.928;8.548;2022-08-19T14:15:31;28.10;99.90
7572;DHT22;3827;49.928;8.548;2022-08-19T14:17:58;28.40;99.90
7572;DHT22;3827;49.928;8.548;2022-08-19T14:20:25;28.20;99.90
7572;DHT22;3827;49.928;8.548;2022-08-19T14:22:52;28.30;99.90
7572;DHT22;3827;49.928;8.548;2022-08-19T14:25:22;29.10;99.90
7572;DHT22;3827;49.928;8.548;2022-08-19T14:27:51;29.70;99.90
7572;DHT22;3827;49.928;8.548;2022-08-19T14:30:19;30.30;99.90
7572;DHT22;3827;49.928;8.548;2022-08-19T14:32:46;30.50;99.90
7572;DHT22;3827;49.928;8.548;2022-08-19T14:35:15;30.20;99.90
7572;DHT22;3827;49.928;8.548;2022-08-19T14:37:43;30.20;99.90
7572;DHT22;3827;49.928;8.548;2022-08-19T14:40:11;30.50;99.90
7572;DHT22;3827;49.928;8.548;2022-08-19T14:42:38;30.60;99.90
7572;DHT22;3827;49.928;8.548;2022-08-19T14:45:09;30.50;99.90
7572;DHT22;3827;49.928;8.548;2022-08-19T14:47:36;30.40;99.90
7572;DHT22;3827;49.928;8.548;2022-08-19T14:50:05;30.30;99.90
7572;DHT22;3827;49.928;8.548;2022-08-19T14:52:32;30.30;99.90
7572;DHT22;3827;49.928;8.548;2022-08-19T14:54:59;30.10;99.90
7572;DHT22;3827;49.928;8.548;2022-08-19T14:57:26;29.90;99.90
7572;DHT22;3827;49.928;8.548;2022-08-19T14:59:52;29.10;99.90
7572;DHT22;3827;49.928;8.548;2022-08-19T15:02:21;28.80;99.90
7572;DHT22;3827;49.928;8.548;2022-08-19T15:04:47;28.60;99.90
7572;DHT22;3827;49.928;8.548;2022-08-19T15:07:16;28.30;99.90
7572;DHT22;3827;49.928;8.548;2022-08-19T15:09:42;28.60;99.90
7572;DHT22;3827;49.928;8.548;2022-08-19T15:12:09;28.50;99.90
7572;DHT22;3827;49.928;8.548;2022-08-19T15:14:36;28.50;99.90
7572;DHT22;3827;49.928;8.548;2022-08-19T15:17:04;28.60;99.90
7572;DHT22;3827;49.928;8.548;2022-08-19T15:19:32;28.70;99.90
7572;DHT22;3827;49.928;8.548;2022-08-19T15:22:01;28.70;99.90
7572;DHT22;3827;49.928;8.548;2022-08-19T15:24:28;28.70;99.90
7572;DHT22;3827;49.928;8.548;2022-08-19T15:26:55;28.80;99.90
7572;DHT22;3827;49.928;8.548;2022-08-19T15:29:22;28.90;99.90
7572;DHT22;3827;49.928;8.548;2022-08-19T15:31:49;29.10;99.90
7572;DHT22;3827;49.928;8.548;2022-08-19T15:34:17;29.30;99.90
7572;DHT22;3827;49.928;8.548;2022-08-19T15:36:45;29.20;99.90
7572;DHT22;3827;49.928;8.548;2022-08-19T15:39:12;29.50;99.90
7572;DHT22;3827;49.928;8.548;2022-08-19T15:41:39;29.80;99.90
7572;DHT22;3827;49.928;8.548;2022-08-19T15:44:09;30.10;99.90
7572;DHT22;3827;49.928;8.548;2022-08-19T15:46:38;29.70;99.90
7572;DHT22;3827;49.928;8.548;2022-08-19T15:49:06;29.50;99.90
7572;DHT22;3827;49.928;8.548;2022-08-19T15:51:34;29.40;99.90
7572;DHT22;3827;49.928;8.548;2022-08-19T15:54:05;29.30;99.90
7572;DHT22;3827;49.928;8.548;2022-08-19T15:56:33;29.40;99.90
7572;DHT22;3827;49.928;8.548;2022-08-19T15:59:27;29.20;99.90
7572;DHT22;3827;49.928;8.548;2022-08-19T16:02:12;29.60;99.90
7572;DHT22;3827;49.928;8.548;2022-08-19T16:04:56;29.70;99.90
7572;DHT22;3827;49.928;8.548;2022-08-19T16:07:40;29.90;99.90
7572;DHT22;3827;49.928;8.548;2022-08-19T16:10:09;29.90;99.90
7572;DHT22;3827;49.928;8.548;2022-08-19T16:12:36;29.60;99.90